createdAt,value
2023-03-02T00:00:52.619Z,98441.19
2023-03-02T00:03:19.199Z,98445.81
2023-03-02T00:05:47.303Z,98449.72
2023-03-02T00:08:18.152Z,98444.94
2023-03-02T00:10:45.080Z,98446.22
2023-03-02T00:13:13.390Z,98437.13
2023-03-02T00:15:40.076Z,98444.66
2023-03-02T00:18:06.664Z,98433.19
2023-03-02T00:20:34.853Z,98438.00
2023-03-02T00:23:01.589Z,98436.22
2023-03-02T00:25:28.890Z,98437.34
2023-03-02T00:27:55.491Z,98435.56
2023-03-02T00:30:22.146Z,98430.78
2023-03-02T00:32:48.748Z,98434.44
2023-03-02T00:35:15.573Z,98425.41
2023-03-02T00:37:42.212Z,98423.16
2023-03-02T00:40:09.797Z,98431.06
2023-03-02T00:42:37.683Z,98425.16
2023-03-02T00:47:44.107Z,98418.38
2023-03-02T00:50:10.981Z,98417.72
2023-03-02T00:52:37.646Z,98418.00
2023-03-02T00:55:04.531Z,98418.22
2023-03-02T00:57:31.178Z,98426.25
2023-03-02T00:59:58.065Z,98422.00
2023-03-02T01:02:24.672Z,98427.19
2023-03-02T01:04:53.264Z,98424.66
2023-03-02T01:07:26.316Z,98422.69
2023-03-02T01:09:52.960Z,98421.94
2023-03-02T01:12:19.955Z,98421.53
2023-03-02T01:14:49.024Z,98415.78
2023-03-02T01:17:15.773Z,98409.63
2023-03-02T01:19:42.587Z,98410.41
2023-03-02T01:22:09.869Z,98407.91
2023-03-02T01:24:36.471Z,98413.81
2023-03-02T01:27:03.091Z,98408.28
2023-03-02T01:29:29.658Z,98404.75
2023-03-02T01:31:56.339Z,98412.47
2023-03-02T01:34:23.134Z,98411.00
2023-03-02T01:36:49.715Z,98403.91
2023-03-02T01:39:16.385Z,98401.28
2023-03-02T01:41:46.609Z,98397.91
2023-03-02T01:44:37.491Z,98394.72
2023-03-02T01:47:26.933Z,98394.97
2023-03-02T01:52:40.351Z,98393.00
2023-03-02T01:55:11.273Z,98380.97
2023-03-02T01:57:43.926Z,98377.88
2023-03-02T02:00:19.518Z,98383.91
2023-03-02T02:02:46.786Z,98376.91
2023-03-02T02:05:19.342Z,98375.16
2023-03-02T02:07:46.154Z,98368.00
2023-03-02T02:10:13.413Z,98370.00
2023-03-02T02:12:39.994Z,98371.06
2023-03-02T02:15:07.171Z,98365.72
2023-03-02T02:17:34.297Z,98365.88
2023-03-02T02:20:25.369Z,98361.69
2023-03-02T02:22:58.067Z,98357.09
2023-03-02T02:25:30.391Z,98355.47
2023-03-02T02:27:57.369Z,98356.03
2023-03-02T02:33:05.638Z,98357.19
2023-03-02T02:35:34.918Z,98352.78
2023-03-02T02:38:07.804Z,98348.69
2023-03-02T02:40:50.434Z,98353.28
2023-03-02T02:43:19.685Z,98351.53
2023-03-02T02:45:48.879Z,98343.81
2023-03-02T02:48:18.253Z,98345.59
2023-03-02T02:50:46.461Z,98347.63
2023-03-02T02:53:26.044Z,98352.28
2023-03-02T02:55:57.147Z,98347.38
2023-03-02T02:58:41.826Z,98344.13
2023-03-02T03:01:08.784Z,98353.38
2023-03-02T03:03:39.277Z,98344.63
2023-03-02T03:06:13.068Z,98338.09
2023-03-02T03:08:45.769Z,98346.16
2023-03-02T03:11:24.096Z,98344.13
2023-03-02T03:14:10.306Z,98339.63
2023-03-02T03:16:39.160Z,98335.91
2023-03-02T03:19:12.133Z,98342.56
2023-03-02T03:21:38.682Z,98334.69
2023-03-02T03:24:05.672Z,98337.25
2023-03-02T03:26:32.493Z,98336.84
2023-03-02T03:28:59.443Z,98330.19
2023-03-02T03:31:27.950Z,98333.22
2023-03-02T03:33:56.144Z,98333.44
2023-03-02T03:36:22.964Z,98327.22
2023-03-02T03:38:49.619Z,98329.28
2023-03-02T03:41:16.312Z,98327.16
2023-03-02T03:43:42.990Z,98332.44
2023-03-02T03:46:09.592Z,98329.41
2023-03-02T03:48:36.262Z,98328.06
2023-03-02T03:51:02.917Z,98339.56
2023-03-02T03:53:29.617Z,98340.34
2023-03-02T03:58:35.514Z,98339.41
2023-03-02T04:01:02.066Z,98334.03
2023-03-02T04:03:28.979Z,98341.28
2023-03-02T04:05:55.753Z,98338.69
2023-03-02T04:08:22.518Z,98337.69
2023-03-02T04:10:49.074Z,98344.09
2023-03-02T04:13:15.992Z,98345.63
2023-03-02T04:15:44.406Z,98345.03
2023-03-02T04:18:12.510Z,98336.03
2023-03-02T04:20:39.115Z,98348.44
2023-03-02T04:23:05.717Z,98349.34
2023-03-02T04:25:32.284Z,98346.75
2023-03-02T04:27:59.305Z,98349.78
2023-03-02T04:32:58.158Z,98346.63
2023-03-02T04:35:25.584Z,98357.38
2023-03-02T04:37:52.624Z,98349.38
2023-03-02T04:40:19.333Z,98346.19
2023-03-02T04:42:46.103Z,98349.34
2023-03-02T04:45:13.528Z,98355.66
2023-03-02T04:47:40.615Z,98343.16
2023-03-02T04:50:08.755Z,98357.03
2023-03-02T04:52:35.378Z,98346.97
2023-03-02T04:55:02.159Z,98355.78
2023-03-02T04:57:28.705Z,98358.47
2023-03-02T04:59:55.468Z,98350.34
2023-03-02T05:02:22.138Z,98349.13
2023-03-02T05:04:49.047Z,98349.97
2023-03-02T05:07:15.662Z,98354.56
2023-03-02T05:09:42.447Z,98345.44
2023-03-02T05:12:08.983Z,98355.91
2023-03-02T05:14:35.634Z,98353.06
2023-03-02T05:17:02.291Z,98344.91
2023-03-02T05:19:28.990Z,98354.28
2023-03-02T05:21:56.617Z,98355.38
2023-03-02T05:24:23.139Z,98347.13
2023-03-02T05:26:49.820Z,98347.00
2023-03-02T05:31:48.307Z,98337.88
2023-03-02T05:34:16.952Z,98345.94
2023-03-02T05:36:45.332Z,98340.84
2023-03-02T05:39:12.605Z,98343.34
2023-03-02T05:41:39.761Z,98340.66
2023-03-02T05:44:09.605Z,98335.69
2023-03-02T05:46:36.826Z,98342.16
2023-03-02T05:49:03.629Z,98341.47
2023-03-02T05:51:30.228Z,98343.34
2023-03-02T05:53:56.881Z,98342.47
2023-03-02T05:56:23.528Z,98350.22
2023-03-02T05:58:50.052Z,98358.19
2023-03-02T06:01:16.643Z,98348.13
2023-03-02T06:03:43.543Z,98358.09
2023-03-02T06:06:14.182Z,98359.66
2023-03-02T06:08:42.215Z,98360.44
2023-03-02T06:11:09.269Z,98353.78
2023-03-02T06:13:36.293Z,98358.97
2023-03-02T06:16:03.472Z,98362.94
2023-03-02T06:18:30.166Z,98361.66
2023-03-02T06:20:56.871Z,98376.47
2023-03-02T06:23:23.550Z,98377.16
2023-03-02T06:25:50.178Z,98377.69
2023-03-02T06:28:19.908Z,98379.06
2023-03-02T06:30:48.813Z,98380.44
2023-03-02T06:33:21.198Z,98373.78
2023-03-02T06:35:48.239Z,98385.03
2023-03-02T06:38:15.240Z,98380.25
2023-03-02T06:43:19.310Z,98381.72
2023-03-02T06:48:19.197Z,98385.22
2023-03-02T06:50:45.798Z,98386.50
2023-03-02T06:53:12.331Z,98384.75
2023-03-02T06:55:38.974Z,98388.38
2023-03-02T06:58:05.546Z,98391.47
2023-03-02T07:03:11.025Z,98402.16
2023-03-02T07:05:37.777Z,98404.50
2023-03-02T07:08:04.763Z,98403.44
2023-03-02T07:10:31.385Z,98401.91
2023-03-02T07:12:57.977Z,98407.06
2023-03-02T07:15:24.849Z,98403.91
2023-03-02T07:17:51.491Z,98397.81
2023-03-02T07:20:18.576Z,98400.44
2023-03-02T07:22:45.998Z,98408.25
2023-03-02T07:25:12.813Z,98411.28
2023-03-02T07:27:40.034Z,98407.13
2023-03-02T07:30:07.350Z,98407.56
2023-03-02T07:32:33.988Z,98407.34
2023-03-02T07:37:31.841Z,98409.66
2023-03-02T07:40:00.564Z,98411.97
2023-03-02T07:42:27.270Z,98421.09
2023-03-02T07:44:54.641Z,98419.19
2023-03-02T07:47:21.934Z,98419.59
2023-03-02T07:49:48.456Z,98412.97
2023-03-02T07:52:15.247Z,98415.44
2023-03-02T07:54:41.896Z,98421.47
2023-03-02T07:57:08.569Z,98418.41
2023-03-02T07:59:35.163Z,98422.16
2023-03-02T08:02:01.756Z,98417.72
2023-03-02T08:12:12.801Z,98416.13
2023-03-02T08:14:39.418Z,98418.84
2023-03-02T08:17:08.306Z,98421.22
2023-03-02T08:19:34.917Z,98417.72
2023-03-02T08:22:02.313Z,98415.72
2023-03-02T08:24:28.903Z,98411.53
2023-03-02T08:26:56.028Z,98426.50
2023-03-02T08:29:24.630Z,98411.03
2023-03-02T08:31:51.289Z,98415.41
2023-03-02T08:36:50.293Z,98408.91
2023-03-02T08:39:16.907Z,98410.50
2023-03-02T08:41:43.452Z,98399.28
2023-03-02T08:44:10.505Z,98398.97
2023-03-02T08:46:37.042Z,98394.69
2023-03-02T08:49:03.615Z,98398.38
2023-03-02T08:51:30.246Z,98394.59
2023-03-02T08:56:31.145Z,98395.16
2023-03-02T08:59:03.890Z,98391.41
2023-03-02T09:04:11.486Z,98391.66
2023-03-02T09:06:41.502Z,98387.28
2023-03-02T09:09:09.703Z,98389.56
2023-03-02T09:11:36.725Z,98382.22
2023-03-02T09:14:03.831Z,98381.53
2023-03-02T09:16:30.471Z,98380.53
2023-03-02T09:18:57.086Z,98373.34
2023-03-02T09:21:25.410Z,98375.50
2023-03-02T09:23:58.217Z,98380.78
2023-03-02T09:26:26.653Z,98367.78
2023-03-02T09:28:53.350Z,98373.69
2023-03-02T09:31:20.041Z,98373.81
2023-03-02T09:33:46.697Z,98372.91
2023-03-02T09:36:22.602Z,98373.06
2023-03-02T09:38:49.232Z,98379.38
2023-03-02T09:41:39.348Z,98382.19
2023-03-02T09:44:22.994Z,98377.28
2023-03-02T09:49:48.153Z,98386.94
2023-03-02T09:52:40.492Z,98388.44
2023-03-02T09:55:19.738Z,98391.59
2023-03-02T09:57:47.234Z,98386.44
2023-03-02T10:00:20.380Z,98393.47
2023-03-02T10:02:54.170Z,98386.56
2023-03-02T10:05:24.605Z,98393.28
2023-03-02T10:07:51.716Z,98388.84
2023-03-02T10:10:18.262Z,98390.97
2023-03-02T10:13:15.706Z,98393.09
2023-03-02T10:15:47.966Z,98395.38
2023-03-02T10:18:29.645Z,98390.56
2023-03-02T10:21:33.930Z,98393.50
2023-03-02T10:24:34.224Z,98390.06
2023-03-02T10:27:19.165Z,98392.31
2023-03-02T10:29:55.003Z,98396.13
2023-03-02T10:32:24.777Z,98396.31
2023-03-02T10:34:53.340Z,98399.41
2023-03-02T10:37:25.440Z,98394.59
2023-03-02T10:39:52.911Z,98395.31
2023-03-02T10:42:24.511Z,98383.88
2023-03-02T10:45:00.428Z,98387.72
2023-03-02T10:47:29.315Z,98386.41
2023-03-02T10:49:57.717Z,98381.66
2023-03-02T10:52:27.269Z,98385.16
2023-03-02T10:55:13.911Z,98378.69
2023-03-02T10:57:45.031Z,98378.06
2023-03-02T11:00:17.819Z,98368.19
2023-03-02T11:02:54.394Z,98368.78
2023-03-02T11:05:28.068Z,98368.50
2023-03-02T11:07:56.009Z,98373.06
2023-03-02T11:10:25.903Z,98368.63
2023-03-02T11:12:54.126Z,98360.69
2023-03-02T11:15:32.466Z,98354.38
2023-03-02T11:18:09.943Z,98361.97
2023-03-02T11:20:42.208Z,98356.56
2023-03-02T11:26:26.955Z,98360.50
2023-03-02T11:29:11.563Z,98347.47
2023-03-02T11:31:47.667Z,98350.44
2023-03-02T11:34:20.443Z,98345.72
2023-03-02T11:40:11.970Z,98350.56
2023-03-02T11:42:41.236Z,98351.72
2023-03-02T11:45:13.548Z,98347.25
2023-03-02T11:48:00.993Z,98346.44
2023-03-02T11:50:31.115Z,98338.03
2023-03-02T11:53:00.234Z,98346.28
2023-03-02T11:55:31.661Z,98344.78
2023-03-02T12:00:49.714Z,98347.19
2023-03-02T12:03:16.165Z,98337.97
2023-03-02T12:06:07.784Z,98337.69
2023-03-02T12:08:50.038Z,98331.69
2023-03-02T12:11:16.534Z,98339.72
2023-03-02T12:13:45.604Z,98331.47
2023-03-02T12:16:33.987Z,98333.28
2023-03-02T12:19:18.066Z,98325.47
2023-03-02T12:21:57.801Z,98327.31
2023-03-02T12:24:27.632Z,98322.00
2023-03-02T12:27:25.684Z,98325.16
2023-03-02T12:30:15.796Z,98325.53
2023-03-02T12:32:58.352Z,98318.09
2023-03-02T12:35:25.784Z,98325.88
2023-03-02T12:40:39.759Z,98317.81
2023-03-02T12:43:16.795Z,98311.00
2023-03-02T12:46:04.475Z,98306.91
2023-03-02T12:48:54.760Z,98304.53
2023-03-02T12:54:07.577Z,98305.81
2023-03-02T12:56:34.754Z,98307.75
2023-03-02T12:59:01.489Z,98303.00
2023-03-02T13:01:30.790Z,98306.59
2023-03-02T13:06:38.602Z,98298.81
2023-03-02T13:09:05.288Z,98302.66
2023-03-02T13:11:36.931Z,98297.16
2023-03-02T13:14:20.454Z,98297.50
2023-03-02T13:17:04.431Z,98296.69
2023-03-02T13:19:32.325Z,98290.56
2023-03-02T13:24:56.121Z,98293.03
2023-03-02T13:27:24.318Z,98292.59
2023-03-02T13:29:55.791Z,98293.00
2023-03-02T13:32:26.584Z,98287.09
2023-03-02T13:34:57.484Z,98281.66
2023-03-02T13:37:43.694Z,98272.75
2023-03-02T13:40:22.601Z,98276.56
2023-03-02T13:42:49.307Z,98274.94
2023-03-02T13:45:22.245Z,98274.13
2023-03-02T13:47:49.103Z,98276.38
2023-03-02T13:50:27.436Z,98272.81
2023-03-02T13:53:00.635Z,98262.28
2023-03-02T13:55:27.695Z,98269.31
2023-03-02T13:57:55.822Z,98259.34
2023-03-02T14:00:27.463Z,98267.34
2023-03-02T14:02:53.970Z,98270.06
2023-03-02T14:05:24.067Z,98266.69
2023-03-02T14:10:22.190Z,98267.13
2023-03-02T14:12:56.303Z,98268.25
2023-03-02T14:15:23.319Z,98268.97
2023-03-02T14:17:49.957Z,98268.25
2023-03-02T14:20:19.635Z,98267.19
2023-03-02T14:22:47.379Z,98262.38
2023-03-02T14:25:14.844Z,98267.78
2023-03-02T14:27:42.462Z,98263.03
2023-03-02T14:30:19.114Z,98265.00
2023-03-02T14:32:46.012Z,98264.97
2023-03-02T14:37:48.346Z,98263.50
2023-03-02T14:42:56.904Z,98266.72
2023-03-02T14:45:24.118Z,98263.13
2023-03-02T14:47:50.657Z,98265.09
2023-03-02T14:50:17.435Z,98259.25
2023-03-02T14:52:55.015Z,98258.75
2023-03-02T14:55:29.607Z,98260.34
2023-03-02T14:58:04.070Z,98260.25
2023-03-02T15:00:30.817Z,98252.84
2023-03-02T15:02:59.206Z,98257.53
2023-03-02T15:05:25.846Z,98253.94
2023-03-02T15:07:53.757Z,98258.66
2023-03-02T15:10:22.277Z,98256.91
2023-03-02T15:12:48.898Z,98256.03
2023-03-02T15:15:15.592Z,98260.25
2023-03-02T15:17:42.369Z,98262.13
2023-03-02T15:20:14.294Z,98250.84
2023-03-02T15:22:40.811Z,98266.16
2023-03-02T15:25:08.235Z,98260.53
2023-03-02T15:27:34.871Z,98258.88
2023-03-02T15:30:01.417Z,98261.25
2023-03-02T15:32:28.051Z,98264.03
2023-03-02T15:34:54.591Z,98261.28
2023-03-02T15:37:21.194Z,98259.53
2023-03-02T15:39:53.313Z,98257.31
2023-03-02T15:42:19.863Z,98263.59
2023-03-02T15:44:46.397Z,98259.94
2023-03-02T15:47:13.029Z,98261.72
2023-03-02T15:49:39.871Z,98260.13
2023-03-02T15:52:06.484Z,98260.97
2023-03-02T15:54:33.656Z,98258.06
2023-03-02T15:57:00.250Z,98261.66
2023-03-02T15:59:29.878Z,98256.88
2023-03-02T16:01:59.947Z,98258.81
2023-03-02T16:04:27.276Z,98270.94
2023-03-02T16:06:55.004Z,98256.75
2023-03-02T16:09:22.637Z,98255.19
2023-03-02T16:11:49.923Z,98258.38
2023-03-02T16:16:48.307Z,98253.22
2023-03-02T16:21:51.074Z,98263.53
2023-03-02T16:24:17.690Z,98265.38
2023-03-02T16:26:45.066Z,98263.53
2023-03-02T16:29:13.144Z,98275.34
2023-03-02T16:34:14.575Z,98268.09
2023-03-02T16:36:42.261Z,98270.00
2023-03-02T16:41:43.513Z,98285.28
2023-03-02T16:44:11.739Z,98290.41
2023-03-02T16:46:40.094Z,98285.50
2023-03-02T16:49:07.004Z,98286.16
2023-03-02T16:51:33.568Z,98291.50
2023-03-02T16:54:00.102Z,98290.69
2023-03-02T16:56:26.750Z,98292.38
2023-03-02T17:01:24.884Z,98296.78
2023-03-02T17:03:52.128Z,98301.22
2023-03-02T17:11:32.013Z,98311.41
2023-03-02T17:13:58.796Z,98323.41
2023-03-02T17:16:25.485Z,98322.88
2023-03-02T17:18:52.135Z,98318.06
2023-03-02T17:21:18.872Z,98325.97
2023-03-02T17:23:48.156Z,98321.66
2023-03-02T17:28:54.498Z,98325.25
2023-03-02T17:31:21.334Z,98328.25
2023-03-02T17:33:48.014Z,98339.75
2023-03-02T17:36:15.924Z,98341.25
2023-03-02T17:38:42.631Z,98349.44
2023-03-02T17:41:11.055Z,98347.41
2023-03-02T17:43:39.697Z,98359.41
2023-03-02T17:46:11.097Z,98362.72
2023-03-02T17:48:37.764Z,98363.50
2023-03-02T17:51:04.486Z,98356.50
2023-03-02T17:53:31.099Z,98365.63
2023-03-02T17:55:57.644Z,98370.44
2023-03-02T18:00:56.785Z,98375.56
2023-03-02T18:05:55.744Z,98374.53
2023-03-02T18:08:22.817Z,98374.88
2023-03-02T18:10:50.240Z,98387.69
2023-03-02T18:13:17.454Z,98388.47
2023-03-02T18:15:44.440Z,98395.06
2023-03-02T18:18:12.728Z,98398.84
2023-03-02T18:20:39.293Z,98391.47
2023-03-02T18:23:05.822Z,98396.38
2023-03-02T18:28:09.520Z,98399.63
2023-03-02T18:30:36.130Z,98396.13
2023-03-02T18:33:02.718Z,98392.28
2023-03-02T18:35:29.402Z,98398.19
2023-03-02T18:37:55.992Z,98409.06
2023-03-02T18:40:22.539Z,98406.22
2023-03-02T18:42:49.197Z,98410.88
2023-03-02T18:45:28.060Z,98410.00
2023-03-02T18:47:55.324Z,98413.53
2023-03-02T18:50:22.685Z,98404.66
2023-03-02T18:52:53.049Z,98414.50
2023-03-02T18:55:24.512Z,98415.38
2023-03-02T18:57:53.952Z,98425.22
2023-03-02T19:00:27.363Z,98431.00
2023-03-02T19:02:54.792Z,98427.31
2023-03-02T19:05:21.456Z,98418.50
2023-03-02T19:07:48.086Z,98433.25
2023-03-02T19:10:15.816Z,98425.84
2023-03-02T19:12:42.390Z,98436.34
2023-03-02T19:15:13.163Z,98439.69
2023-03-02T19:17:42.681Z,98435.72
2023-03-02T19:20:15.194Z,98447.75
2023-03-02T19:22:41.740Z,98443.34
2023-03-02T19:25:08.835Z,98446.97
2023-03-02T19:30:12.122Z,98444.19
2023-03-02T19:32:38.792Z,98449.06
2023-03-02T19:35:05.940Z,98444.34
2023-03-02T19:37:33.513Z,98437.34
2023-03-02T19:40:00.060Z,98444.91
2023-03-02T19:42:26.768Z,98444.91
2023-03-02T19:44:53.305Z,98447.81
2023-03-02T19:47:19.873Z,98443.72
2023-03-02T19:49:46.377Z,98451.63
2023-03-02T19:52:12.881Z,98449.63
2023-03-02T19:54:39.411Z,98451.63
2023-03-02T19:57:07.867Z,98458.44
2023-03-02T19:59:36.632Z,98449.28
2023-03-02T20:02:03.348Z,98455.28
2023-03-02T20:04:29.911Z,98458.00
2023-03-02T20:06:56.871Z,98469.31
2023-03-02T20:09:24.327Z,98460.47
2023-03-02T20:11:51.098Z,98470.31
2023-03-02T20:14:32.889Z,98472.34
2023-03-02T20:17:00.266Z,98474.50
2023-03-02T20:19:26.862Z,98472.75
2023-03-02T20:21:53.406Z,98470.00
2023-03-02T20:24:20.165Z,98472.28
2023-03-02T20:26:47.001Z,98469.81
2023-03-02T20:29:14.204Z,98480.97
2023-03-02T20:31:41.032Z,98485.38
2023-03-02T20:34:12.458Z,98481.22
2023-03-02T20:36:39.117Z,98485.09
2023-03-02T20:39:31.500Z,98481.22
2023-03-02T20:41:59.005Z,98484.25
2023-03-02T20:44:26.309Z,98490.88
2023-03-02T20:46:56.096Z,98490.19
2023-03-02T20:52:03.247Z,98494.09
2023-03-02T20:54:34.036Z,98499.47
2023-03-02T20:57:00.645Z,98501.97
2023-03-02T20:59:27.946Z,98499.63
2023-03-02T21:04:33.295Z,98503.06
2023-03-02T21:07:00.129Z,98504.97
2023-03-02T21:09:26.683Z,98507.22
2023-03-02T21:14:32.566Z,98507.75
2023-03-02T21:17:00.339Z,98511.97
2023-03-02T21:19:29.616Z,98515.69
2023-03-02T21:21:57.213Z,98511.97
2023-03-02T21:24:23.833Z,98518.66
2023-03-02T21:26:52.346Z,98516.13
2023-03-02T21:29:21.885Z,98524.44
2023-03-02T21:31:48.639Z,98521.16
2023-03-02T21:34:16.475Z,98512.41
2023-03-02T21:36:43.585Z,98512.06
2023-03-02T21:39:11.909Z,98514.88
2023-03-02T21:44:16.812Z,98513.59
2023-03-02T21:46:43.558Z,98513.34
2023-03-02T21:49:11.460Z,98509.38
2023-03-02T21:51:38.021Z,98511.28
2023-03-02T21:54:04.785Z,98516.53
2023-03-02T21:56:31.300Z,98500.34
2023-03-02T21:58:58.013Z,98508.44
2023-03-02T22:01:26.516Z,98502.72
2023-03-02T22:03:53.511Z,98503.66
2023-03-02T22:06:25.705Z,98500.19
2023-03-02T22:08:52.990Z,98497.81
2023-03-02T22:11:28.492Z,98493.50
2023-03-02T22:13:58.508Z,98493.03
2023-03-02T22:16:28.241Z,98497.31
2023-03-02T22:18:59.778Z,98501.47
2023-03-02T22:21:38.248Z,98498.13
2023-03-02T22:24:13.840Z,98502.25
2023-03-02T22:26:43.890Z,98506.72
2023-03-02T22:29:39.513Z,98506.53
2023-03-02T22:32:17.158Z,98512.84
2023-03-02T22:34:45.437Z,98503.53
2023-03-02T22:37:14.900Z,98508.53
2023-03-02T22:39:42.392Z,98515.41
2023-03-02T22:42:18.545Z,98510.00
2023-03-02T22:45:10.165Z,98515.84
2023-03-02T22:47:36.680Z,98515.06
2023-03-02T22:50:18.824Z,98520.28
2023-03-02T22:52:45.416Z,98525.34
2023-03-02T22:55:35.380Z,98527.25
2023-03-02T22:58:45.174Z,98529.16
2023-03-02T23:01:25.064Z,98522.44
2023-03-02T23:04:02.271Z,98520.09
2023-03-02T23:09:06.364Z,98524.47
2023-03-02T23:11:38.434Z,98521.63
2023-03-02T23:14:27.405Z,98529.16
2023-03-02T23:17:01.455Z,98532.94
2023-03-02T23:19:30.260Z,98533.00
2023-03-02T23:21:58.066Z,98531.13
2023-03-02T23:24:25.341Z,98534.06
2023-03-02T23:26:53.276Z,98530.84
2023-03-02T23:29:20.540Z,98532.13
2023-03-02T23:31:47.798Z,98534.81
2023-03-02T23:34:14.691Z,98538.00
2023-03-02T23:36:41.477Z,98539.81
2023-03-02T23:39:09.786Z,98534.72
2023-03-02T23:41:37.208Z,98542.13
2023-03-02T23:44:04.886Z,98539.47
2023-03-02T23:46:31.936Z,98534.16
2023-03-02T23:48:58.649Z,98528.91
2023-03-02T23:51:26.243Z,98537.56
2023-03-02T23:53:54.129Z,98534.91
2023-03-02T23:56:21.406Z,98536.06
2023-03-02T23:58:48.209Z,98532.34
